createdAt,value
2022-08-01T00:02:11.075Z,26.90
2022-08-01T00:04:59.123Z,26.80
2022-08-01T00:07:45.799Z,26.90
2022-08-01T00:10:32.738Z,26.80
2022-08-01T00:13:22.855Z,26.70
2022-08-01T00:16:09.366Z,26.70
2022-08-01T00:18:57.325Z,26.80
2022-08-01T00:21:51.820Z,26.70
2022-08-01T00:24:39.340Z,26.60
2022-08-01T00:27:25.779Z,26.80
2022-08-01T00:30:14.828Z,26.70
2022-08-01T00:33:01.542Z,26.70
2022-08-01T00:35:49.318Z,26.50
2022-08-01T00:38:35.836Z,26.30
2022-08-01T00:41:22.490Z,26.30
2022-08-01T00:44:09.054Z,26.30
2022-08-01T00:46:55.351Z,26.40
2022-08-01T00:49:41.764Z,26.30
2022-08-01T00:52:29.570Z,26.30
2022-08-01T00:55:17.339Z,26.30
2022-08-01T00:58:05.734Z,26.30
2022-08-01T01:00:54.619Z,26.40
2022-08-01T01:03:58.650Z,26.30
2022-08-01T01:06:58.761Z,26.40
2022-08-01T01:09:52.776Z,26.40
2022-08-01T01:12:49.982Z,26.30
2022-08-01T01:15:45.820Z,26.40
2022-08-01T01:18:36.497Z,26.40
2022-08-01T01:21:49.801Z,26.40
2022-08-01T01:24:43.946Z,26.40
2022-08-01T01:27:46.658Z,26.60
2022-08-01T01:30:35.754Z,26.40
2022-08-01T01:33:24.453Z,26.40
2022-08-01T01:36:15.193Z,26.20
2022-08-01T01:39:03.451Z,26.20
2022-08-01T01:41:51.371Z,26.00
2022-08-01T01:44:39.503Z,26.20
2022-08-01T01:47:29.799Z,26.20
2022-08-01T01:50:17.528Z,26.10
2022-08-01T01:53:04.789Z,26.00
2022-08-01T01:55:54.622Z,25.80
2022-08-01T01:58:41.959Z,25.60
2022-08-01T02:01:58.831Z,25.70
2022-08-01T02:04:43.481Z,25.70
2022-08-01T02:07:31.370Z,25.80
2022-08-01T02:10:19.225Z,25.90
2022-08-01T02:13:08.313Z,25.70
2022-08-01T02:15:59.259Z,25.60
2022-08-01T02:18:47.058Z,25.70
2022-08-01T02:21:43.100Z,25.60
2022-08-01T02:24:38.835Z,25.50
2022-08-01T02:27:30.358Z,25.60
2022-08-01T02:30:18.017Z,25.60
2022-08-01T02:33:15.742Z,25.40
2022-08-01T02:36:30.522Z,25.40
2022-08-01T02:39:16.207Z,25.30
2022-08-01T02:42:08.467Z,25.10
2022-08-01T02:44:56.424Z,25.20
2022-08-01T02:47:44.433Z,25.30
2022-08-01T02:50:34.081Z,25.40
2022-08-01T02:53:23.964Z,25.20
2022-08-01T02:56:36.712Z,25.40
2022-08-01T02:59:26.796Z,25.50
2022-08-01T03:02:15.581Z,25.40
2022-08-01T03:05:03.310Z,25.40
2022-08-01T03:07:50.367Z,25.20
2022-08-01T03:10:39.807Z,25.30
2022-08-01T03:13:29.202Z,25.30
2022-08-01T03:16:16.990Z,25.20
2022-08-01T03:19:04.246Z,25.20
2022-08-01T03:21:51.846Z,25.10
2022-08-01T03:24:40.028Z,25.10
2022-08-01T03:27:27.245Z,25.10
2022-08-01T03:30:16.501Z,25.20
2022-08-01T03:33:04.073Z,25.10
2022-08-01T03:35:54.720Z,25.10
2022-08-01T03:38:44.299Z,25.20
2022-08-01T03:41:38.276Z,25.10
2022-08-01T03:44:28.427Z,24.70
2022-08-01T03:47:18.324Z,24.70
2022-08-01T03:50:12.484Z,24.70
2022-08-01T03:53:02.185Z,25.00
2022-08-01T03:55:49.970Z,25.10
2022-08-01T03:58:37.117Z,24.70
2022-08-01T04:01:24.162Z,24.60
2022-08-01T04:04:13.008Z,24.70
2022-08-01T04:07:05.083Z,25.00
2022-08-01T04:09:51.875Z,25.00
2022-08-01T04:12:38.289Z,25.00
2022-08-01T04:15:24.970Z,25.20
2022-08-01T04:18:11.386Z,24.90
2022-08-01T04:20:59.132Z,25.00
2022-08-01T04:23:51.726Z,25.10
2022-08-01T04:26:42.003Z,24.80
2022-08-01T04:29:30.854Z,24.50
2022-08-01T04:32:20.059Z,24.40
2022-08-01T04:35:57.709Z,24.10
2022-08-01T04:38:24.259Z,24.30
2022-08-01T04:41:14.460Z,24.30
2022-08-01T04:44:01.714Z,24.40
2022-08-01T04:46:49.418Z,24.50
2022-08-01T04:49:49.162Z,24.60
2022-08-01T04:52:36.882Z,24.60
2022-08-01T04:55:25.137Z,24.40
2022-08-01T04:58:16.152Z,24.40
2022-08-01T05:01:04.508Z,24.60
2022-08-01T05:03:51.409Z,24.60
2022-08-01T05:06:37.931Z,24.60
2022-08-01T05:09:27.126Z,24.80
2022-08-01T05:12:19.222Z,24.90
2022-08-01T05:15:11.696Z,24.80
2022-08-01T05:18:01.214Z,24.70
2022-08-01T05:20:48.350Z,24.60
2022-08-01T05:23:43.209Z,24.70
2022-08-01T05:26:30.171Z,24.60
2022-08-01T05:29:19.815Z,24.70
2022-08-01T05:32:07.218Z,24.60
2022-08-01T05:34:54.169Z,24.80
2022-08-01T05:37:40.613Z,24.60
2022-08-01T05:40:27.437Z,24.40
2022-08-01T05:43:13.771Z,24.60
2022-08-01T05:46:02.521Z,24.80
2022-08-01T05:48:49.272Z,24.90
2022-08-01T05:51:35.917Z,24.90
2022-08-01T05:54:22.242Z,25.00
2022-08-01T05:57:08.663Z,25.20
2022-08-01T05:59:55.118Z,25.20
2022-08-01T06:02:46.120Z,25.00
2022-08-01T06:05:32.734Z,25.20
2022-08-01T06:08:19.285Z,25.30
2022-08-01T06:11:05.849Z,24.90
2022-08-01T06:13:52.452Z,25.00
2022-08-01T06:16:39.172Z,25.10
2022-08-01T06:19:27.465Z,25.10
2022-08-01T06:22:14.176Z,24.80
2022-08-01T06:25:00.772Z,24.60
2022-08-01T06:27:47.234Z,24.80
2022-08-01T06:30:33.798Z,24.70
2022-08-01T06:33:20.772Z,24.50
2022-08-01T06:36:08.623Z,24.60
2022-08-01T06:38:55.009Z,24.70
2022-08-01T06:41:42.556Z,24.90
2022-08-01T06:44:29.150Z,25.00
2022-08-01T06:47:15.806Z,25.40
2022-08-01T06:50:02.574Z,25.30
2022-08-01T06:52:50.479Z,25.60
2022-08-01T06:55:36.807Z,25.80
2022-08-01T06:58:30.982Z,25.70
2022-08-01T07:01:18.829Z,25.40
2022-08-01T07:04:05.432Z,25.30
2022-08-01T07:06:51.787Z,25.40
2022-08-01T07:09:41.997Z,25.80
2022-08-01T07:12:28.620Z,25.30
2022-08-01T07:15:15.398Z,25.60
2022-08-01T07:18:04.692Z,26.10
2022-08-01T07:20:52.703Z,25.80
2022-08-01T07:23:39.767Z,25.90
2022-08-01T07:26:34.278Z,26.20
2022-08-01T07:29:21.015Z,26.40
2022-08-01T07:32:08.448Z,26.50
2022-08-01T07:34:55.241Z,26.30
2022-08-01T07:37:47.836Z,26.30
2022-08-01T07:40:36.397Z,25.90
2022-08-01T07:43:24.250Z,26.10
2022-08-01T07:46:10.737Z,26.20
2022-08-01T07:48:57.206Z,26.40
2022-08-01T07:51:43.667Z,26.70
2022-08-01T07:54:52.207Z,27.10
2022-08-01T07:57:39.581Z,27.50
2022-08-01T08:00:28.511Z,27.60
2022-08-01T08:03:14.944Z,27.50
2022-08-01T08:06:01.483Z,27.40
2022-08-01T08:08:47.859Z,27.30
2022-08-01T08:11:34.395Z,27.50
2022-08-01T08:14:23.723Z,28.00
2022-08-01T08:17:20.712Z,28.00
2022-08-01T08:20:09.603Z,27.90
2022-08-01T08:22:56.802Z,27.90
2022-08-01T08:25:43.414Z,27.80
2022-08-01T08:28:29.838Z,27.90
2022-08-01T08:31:50.640Z,27.90
2022-08-01T08:34:25.070Z,28.50
2022-08-01T08:37:12.138Z,28.70
2022-08-01T08:39:58.482Z,28.70
2022-08-01T08:42:47.351Z,29.00
2022-08-01T08:45:59.880Z,28.60
2022-08-01T08:48:42.276Z,28.60
2022-08-01T08:51:33.161Z,28.50
2022-08-01T08:54:21.773Z,28.30
2022-08-01T08:57:08.386Z,28.40
2022-08-01T08:59:56.216Z,28.20
2022-08-01T09:02:45.075Z,27.80
2022-08-01T09:05:39.332Z,27.80
2022-08-01T09:08:27.191Z,28.00
2022-08-01T09:11:22.590Z,27.60
2022-08-01T09:14:11.781Z,27.20
2022-08-01T09:17:03.594Z,27.50
2022-08-01T09:19:54.430Z,27.70
2022-08-01T09:22:43.984Z,28.00
2022-08-01T09:25:56.896Z,27.80
2022-08-01T09:28:48.017Z,27.90
2022-08-01T09:31:47.880Z,28.20
2022-08-01T09:34:35.234Z,28.60
2022-08-01T09:37:37.525Z,29.00
2022-08-01T09:40:27.379Z,29.10
2022-08-01T09:43:15.791Z,29.10
2022-08-01T09:46:06.825Z,29.20
2022-08-01T09:49:01.077Z,29.20
2022-08-01T09:51:59.219Z,30.10
2022-08-01T09:54:56.204Z,30.60
2022-08-01T09:57:56.294Z,30.90
2022-08-01T10:00:45.626Z,31.00
2022-08-01T10:03:32.503Z,30.80
2022-08-01T10:06:24.745Z,30.90
2022-08-01T10:09:11.849Z,31.00
2022-08-01T10:12:01.479Z,30.10
2022-08-01T10:14:51.200Z,30.80
2022-08-01T10:17:50.501Z,31.40
2022-08-01T10:20:38.866Z,32.00
2022-08-01T10:23:39.831Z,32.70
2022-08-01T10:26:28.815Z,33.90
2022-08-01T10:29:45.274Z,32.60
2022-08-01T10:32:28.743Z,33.30
2022-08-01T10:35:45.614Z,33.10
2022-08-01T10:38:26.121Z,33.70
2022-08-01T10:41:16.004Z,33.30
2022-08-01T10:44:03.782Z,33.10
2022-08-01T10:46:54.890Z,33.60
2022-08-01T10:49:47.249Z,33.90
2022-08-01T10:52:39.419Z,33.70
2022-08-01T10:55:27.195Z,33.60
2022-08-01T10:58:15.822Z,31.70
2022-08-01T11:01:25.903Z,30.70
2022-08-01T11:04:17.663Z,30.70
2022-08-01T11:07:07.121Z,30.60
2022-08-01T11:10:14.591Z,31.20
2022-08-01T11:13:04.539Z,31.70
2022-08-01T11:15:51.770Z,32.40
2022-08-01T11:18:38.474Z,33.30
2022-08-01T11:22:07.314Z,34.70
2022-08-01T11:25:02.206Z,35.00
2022-08-01T11:27:50.474Z,34.90
2022-08-01T11:30:38.150Z,36.20
2022-08-01T11:33:51.103Z,36.50
2022-08-01T11:39:45.161Z,35.20
2022-08-01T11:42:31.609Z,34.90
2022-08-01T11:45:20.115Z,35.60
2022-08-01T11:48:20.307Z,36.20
2022-08-01T11:51:25.333Z,36.30
2022-08-01T11:54:12.554Z,36.90
2022-08-01T11:57:00.820Z,37.40
2022-08-01T12:00:02.555Z,36.90
2022-08-01T12:02:59.812Z,37.10
2022-08-01T12:05:47.268Z,36.20
2022-08-01T12:08:37.354Z,36.20
2022-08-01T12:11:24.093Z,37.80
2022-08-01T12:14:23.899Z,39.10
2022-08-01T12:17:10.632Z,39.60
2022-08-01T12:19:58.594Z,40.20
2022-08-01T12:22:45.519Z,40.30
2022-08-01T12:25:32.575Z,41.00
2022-08-01T12:28:19.655Z,41.40
2022-08-01T12:31:06.664Z,42.20
2022-08-01T12:33:53.530Z,41.40
2022-08-01T12:36:41.430Z,38.80
2022-08-01T12:39:40.120Z,38.70
2022-08-01T12:42:27.741Z,39.10
2022-08-01T12:45:16.404Z,38.00
2022-08-01T12:48:03.946Z,36.80
2022-08-01T12:50:51.784Z,36.40
2022-08-01T12:53:41.675Z,37.50
2022-08-01T12:56:34.065Z,38.20
2022-08-01T12:59:26.148Z,38.10
2022-08-01T13:02:13.506Z,37.00
2022-08-01T13:05:00.206Z,37.20
2022-08-01T13:07:50.406Z,36.80
2022-08-01T13:10:38.036Z,36.00
2022-08-01T13:13:28.707Z,35.10
2022-08-01T13:16:31.192Z,35.90
2022-08-01T13:19:44.498Z,36.30
2022-08-01T13:22:35.124Z,35.30
2022-08-01T13:25:23.015Z,35.50
2022-08-01T13:28:18.363Z,34.20
2022-08-01T13:31:06.717Z,36.20
2022-08-01T13:34:00.066Z,37.70
2022-08-01T13:36:49.677Z,37.00
2022-08-01T13:39:43.120Z,38.00
2022-08-01T13:42:30.446Z,37.80
2022-08-01T13:45:18.550Z,37.30
2022-08-01T13:48:13.034Z,36.80
2022-08-01T13:51:21.422Z,35.40
2022-08-01T13:54:09.535Z,35.00
2022-08-01T13:56:56.606Z,34.40
2022-08-01T13:59:43.311Z,34.70
2022-08-01T14:02:36.353Z,34.90
2022-08-01T14:05:25.718Z,35.30
2022-08-01T14:08:12.948Z,34.80
2022-08-01T14:11:01.455Z,34.10
2022-08-01T14:13:47.959Z,34.00
2022-08-01T14:16:35.208Z,34.60
2022-08-01T14:19:38.787Z,34.00
2022-08-01T14:22:26.622Z,33.50
2022-08-01T14:25:13.900Z,33.90
2022-08-01T14:28:20.541Z,33.70
2022-08-01T14:31:08.607Z,33.30
2022-08-01T14:33:55.396Z,33.30
2022-08-01T14:36:43.717Z,33.10
2022-08-01T14:39:30.321Z,32.50
2022-08-01T14:42:17.407Z,32.30
2022-08-01T14:45:03.949Z,32.10
2022-08-01T14:47:50.785Z,31.90
2022-08-01T14:50:37.534Z,31.80
2022-08-01T14:53:25.548Z,31.70
2022-08-01T14:56:12.377Z,31.90
2022-08-01T14:58:59.710Z,32.30
2022-08-01T15:01:46.321Z,32.30
2022-08-01T15:04:33.149Z,31.80
2022-08-01T15:07:20.682Z,31.20
2022-08-01T15:10:10.339Z,31.10
2022-08-01T15:12:57.988Z,30.80
2022-08-01T15:15:44.589Z,30.60
2022-08-01T15:18:31.428Z,30.70
2022-08-01T15:21:40.824Z,30.70
2022-08-01T15:24:27.678Z,30.40
2022-08-01T15:27:15.679Z,30.60
2022-08-01T15:30:02.248Z,30.70
2022-08-01T15:32:48.709Z,30.60
2022-08-01T15:35:37.947Z,30.20
2022-08-01T15:38:24.368Z,29.20
2022-08-01T15:41:10.856Z,27.60
2022-08-01T15:43:59.679Z,27.40
2022-08-01T15:46:46.152Z,27.20
2022-08-01T15:49:33.657Z,27.30
2022-08-01T15:52:21.322Z,27.20
2022-08-01T15:55:10.210Z,27.10
2022-08-01T15:57:56.831Z,26.90
2022-08-01T16:00:44.697Z,26.80
2022-08-01T16:03:31.152Z,26.70
2022-08-01T16:06:17.820Z,27.00
2022-08-01T16:09:05.053Z,27.10
2022-08-01T16:11:52.691Z,27.30
2022-08-01T16:14:39.375Z,27.50
2022-08-01T16:17:27.317Z,27.70
2022-08-01T16:20:13.955Z,27.80
2022-08-01T16:23:00.439Z,27.90
2022-08-01T16:25:47.021Z,27.90
2022-08-01T16:28:33.597Z,27.90
2022-08-01T16:31:23.381Z,27.80
2022-08-01T16:34:28.680Z,27.80
2022-08-01T16:37:15.492Z,27.60
2022-08-01T16:40:01.898Z,27.20
2022-08-01T16:42:49.786Z,27.00
2022-08-01T16:45:40.652Z,27.10
2022-08-01T16:48:29.213Z,27.10
2022-08-01T16:51:17.364Z,27.10
2022-08-01T16:54:04.652Z,27.10
2022-08-01T16:57:11.970Z,27.10
2022-08-01T16:59:58.726Z,27.20
2022-08-01T17:02:45.809Z,27.40
2022-08-01T17:05:33.521Z,27.20
2022-08-01T17:08:21.598Z,27.30
2022-08-01T17:11:08.090Z,27.30
2022-08-01T17:13:54.654Z,27.20
2022-08-01T17:16:41.265Z,26.90
2022-08-01T17:19:33.004Z,27.00
2022-08-01T17:22:20.958Z,27.00
2022-08-01T17:25:15.869Z,26.90
2022-08-01T17:28:03.221Z,26.80
2022-08-01T17:30:50.069Z,26.90
2022-08-01T17:33:45.678Z,27.10
2022-08-01T17:36:33.370Z,27.00
2022-08-01T17:39:23.579Z,26.90
2022-08-01T17:42:25.229Z,27.00
2022-08-01T17:45:28.161Z,26.90
2022-08-01T17:48:17.306Z,27.00
2022-08-01T17:51:04.241Z,27.00
2022-08-01T17:53:56.119Z,26.90
2022-08-01T17:56:46.021Z,26.80
2022-08-01T17:59:34.356Z,27.00
2022-08-01T18:02:21.170Z,27.00
2022-08-01T18:05:10.703Z,27.10
2022-08-01T18:08:01.751Z,27.20
2022-08-01T18:10:49.087Z,27.30
2022-08-01T18:13:35.886Z,27.30
2022-08-01T18:16:24.341Z,27.40
2022-08-01T18:19:10.837Z,27.40
2022-08-01T18:21:57.890Z,27.40
2022-08-01T18:24:44.586Z,27.40
2022-08-01T18:28:22.258Z,27.50
2022-08-01T18:30:37.626Z,27.50
2022-08-01T18:33:25.569Z,27.30
2022-08-01T18:36:27.212Z,27.30
2022-08-01T18:39:19.085Z,27.30
2022-08-01T18:42:07.312Z,27.20
2022-08-01T18:44:54.167Z,27.20
2022-08-01T18:47:40.960Z,27.20
2022-08-01T18:50:28.750Z,27.20
2022-08-01T18:53:15.371Z,27.20
2022-08-01T18:56:04.111Z,27.20
2022-08-01T18:58:54.922Z,27.20
2022-08-01T19:01:41.636Z,27.20
2022-08-01T19:04:28.089Z,27.00
2022-08-01T19:07:39.435Z,26.90
2022-08-01T19:10:25.547Z,27.00
2022-08-01T19:13:12.080Z,26.90
2022-08-01T19:15:58.909Z,26.80
2022-08-01T19:18:46.332Z,26.60
2022-08-01T19:21:33.501Z,26.60
2022-08-01T19:24:23.126Z,26.70
2022-08-01T19:27:14.322Z,26.60
2022-08-01T19:30:03.561Z,26.70
2022-08-01T19:32:50.421Z,26.80
2022-08-01T19:35:38.696Z,26.90
2022-08-01T19:38:27.283Z,26.80
2022-08-01T19:41:16.663Z,26.80
2022-08-01T19:44:03.556Z,26.80
2022-08-01T19:46:51.343Z,26.80
2022-08-01T19:49:38.636Z,26.90
2022-08-01T19:52:27.921Z,26.80
2022-08-01T19:55:16.263Z,26.60
2022-08-01T19:58:25.871Z,26.60
2022-08-01T20:01:14.338Z,26.60
2022-08-01T20:04:04.560Z,26.50
2022-08-01T20:06:51.388Z,26.50
2022-08-01T20:09:40.873Z,26.50
2022-08-01T20:12:29.254Z,26.50
2022-08-01T20:15:17.805Z,26.50
2022-08-01T20:18:04.613Z,26.50
2022-08-01T20:20:52.722Z,26.60
2022-08-01T20:23:41.805Z,26.50
2022-08-01T20:26:30.038Z,26.40
2022-08-01T20:29:19.099Z,26.40
2022-08-01T20:32:08.175Z,26.40
2022-08-01T20:34:55.792Z,26.20
2022-08-01T20:38:04.001Z,26.20
2022-08-01T20:40:52.748Z,26.20
2022-08-01T20:43:39.639Z,26.20
2022-08-01T20:46:27.313Z,26.20
2022-08-01T20:49:16.023Z,26.30
2022-08-01T20:52:12.257Z,26.30
2022-08-01T20:54:59.647Z,26.30
2022-08-01T20:57:53.621Z,26.20
2022-08-01T21:00:41.134Z,26.20
2022-08-01T21:03:37.950Z,26.20
2022-08-01T21:06:34.774Z,26.30
2022-08-01T21:09:24.987Z,26.30
2022-08-01T21:12:21.130Z,26.10
2022-08-01T21:15:12.965Z,26.20
2022-08-01T21:18:05.075Z,26.20
2022-08-01T21:20:59.678Z,25.90
2022-08-01T21:23:53.809Z,25.80
2022-08-01T21:26:41.968Z,25.70
2022-08-01T21:29:29.409Z,25.60
2022-08-01T21:32:17.062Z,25.50
2022-08-01T21:35:05.476Z,25.60
2022-08-01T21:38:03.598Z,25.50
2022-08-01T21:40:53.696Z,25.50
2022-08-01T21:43:43.048Z,25.50
2022-08-01T21:46:33.274Z,25.60
2022-08-01T21:49:19.972Z,25.60
2022-08-01T21:52:09.193Z,25.50
2022-08-01T21:55:02.803Z,25.50
2022-08-01T21:58:02.715Z,25.60
2022-08-01T22:00:54.065Z,25.50
2022-08-01T22:03:47.085Z,25.50
2022-08-01T22:06:37.239Z,25.40
2022-08-01T22:09:24.312Z,25.40
2022-08-01T22:12:17.930Z,25.30
2022-08-01T22:15:08.399Z,25.20
2022-08-01T22:17:55.329Z,25.20
2022-08-01T22:20:42.267Z,25.80
2022-08-01T22:23:29.247Z,25.10
2022-08-01T22:26:15.604Z,25.10
2022-08-01T22:29:03.365Z,25.20
2022-08-01T22:31:56.812Z,25.20
2022-08-01T22:34:45.441Z,25.20
2022-08-01T22:37:56.631Z,25.10
2022-08-01T22:40:45.961Z,25.10
2022-08-01T22:43:40.414Z,25.10
2022-08-01T22:46:34.205Z,25.00
2022-08-01T22:49:29.121Z,25.00
2022-08-01T22:52:20.001Z,25.00
2022-08-01T22:55:08.370Z,25.00
2022-08-01T22:57:59.638Z,25.10
2022-08-01T23:00:51.369Z,25.00
2022-08-01T23:03:42.163Z,24.80
2022-08-01T23:06:38.513Z,24.80
2022-08-01T23:09:52.643Z,24.70
2022-08-01T23:12:35.898Z,24.70
2022-08-01T23:15:23.968Z,24.70
2022-08-01T23:18:11.024Z,24.50
2022-08-01T23:21:00.086Z,24.40
2022-08-01T23:23:49.271Z,24.40
2022-08-01T23:26:37.277Z,24.30
2022-08-01T23:29:27.801Z,24.40
2022-08-01T23:32:14.692Z,24.30
2022-08-01T23:35:01.615Z,24.40
2022-08-01T23:37:48.234Z,24.30
2022-08-01T23:40:36.278Z,24.40
2022-08-01T23:43:23.148Z,24.40
2022-08-01T23:46:12.635Z,24.50
2022-08-01T23:48:59.321Z,24.30
2022-08-01T23:51:46.371Z,24.20
2022-08-01T23:54:33.026Z,24.20
2022-08-01T23:57:21.294Z,24.30
